Time;durP1;ratioP1;P1;durP2;ratioP2;P2;SDS_P1;SDS_P2;PMS_P1;PMS_P2;Temp;Humidity;BMP_temperature;BMP_pressure;BME280_temperature;BME280_humidity;BME280_pressure;Samples;Min_cycle;Max_cycle;Signal;HPM_P1;HPM_P2
2021/07/16 00:01:09;;;;;;;8.40;7.60;;;;;;;26.20;46.63;94121.11;828206;71;30281;-76
2021/07/16 00:16:09;;;;;;;10.67;9.60;;;;;;;26.96;47.24;94101.72;828226;71;28970;-77
2021/07/16 00:31:15;;;;;;;11.20;10.20;;;;;;;27.36;48.60;94079.13;827909;71;31758;-76
2021/07/16 00:46:13;;;;;;;11.47;10.33;;;;;;;;;;834474;71;31743;-76
2021/07/16 01:01:15;;;;;;;11.93;10.13;;;;;;;27.57;47.89;94103.69;827631;71;31729;-74
2021/07/16 01:16:14;;;;;;;11.30;10.30;;;;;;;27.52;47.92;94109.52;833956;71;32063;-77
2021/07/16 01:31:15;;;;;;;12.13;10.10;;;;;;;27.54;48.04;94104.48;828556;71;31751;-79
2021/07/16 01:46:08;;;;;;;12.00;10.93;;;;;;;27.53;48.08;94083.33;828491;71;27480;-78
2021/07/16 02:01:14;;;;;;;11.97;10.73;;;;;;;;;;830162;71;27430;-77
2021/07/16 02:02:12;;;;;;;13.70;12.40;;;;;;;;;;809823;73;25888;-77
2021/07/16 02:16:09;;;;;;;12.17;10.47;;;;;;;27.47;48.72;94082.26;828047;71;29597;-79
2021/07/16 02:31:12;;;;;;;13.70;12.23;;;;;;;;;;828316;71;31007;-77
2021/07/16 02:46:15;;;;;;;12.50;11.20;;;;;;;27.35;49.33;94058.75;827675;71;31795;-78
2021/07/16 03:16:09;;;;;;;14.47;12.90;;;;;;;;;;828468;71;29140;-78
2021/07/16 03:31:15;;;;;;;12.80;11.50;;;;;;;27.21;49.83;94097.20;827403;71;31882;-79
2021/07/16 03:46:16;;;;;;;14.07;12.30;;;;;;;27.30;49.38;94096.91;828225;71;31808;-79
2021/07/16 04:01:07;;;;;;;12.10;10.90;;;;;;;;;;828423;71;29083;-78
2021/07/16 04:16:14;;;;;;;17.10;12.20;;;;;;;27.96;47.77;94094.84;827590;71;32702;-77
2021/07/16 04:31:16;;;;;;;12.23;11.03;;;;;;;28.41;46.94;94089.68;827577;71;32783;-74
2021/07/16 04:46:10;;;;;;;33.73;30.73;;;;;;;28.49;48.01;94082.41;828145;71;30121;-75
2021/07/16 05:01:08;;;;;;;15.77;12.43;;;;;;;27.67;48.92;94087.75;828518;71;29612;-76
2021/07/16 05:16:11;;;;;;;12.37;10.37;;;;;;;27.02;48.30;94067.03;828167;71;30658;-75
2021/07/16 05:31:08;;;;;;;11.47;10.27;;;;;;;26.81;48.99;94056.53;829530;71;29728;-78
2021/07/16 05:46:07;;;;;;;10.37;9.40;;;;;;;;;;828208;71;29765;-78
2021/07/16 06:01:11;;;;;;;9.50;8.70;;;;;;;26.76;47.23;94071.18;828573;71;30248;-77
2021/07/16 06:16:24;;;;;;;11.40;8.43;;;;;;;24.26;47.10;93651.86;827989;71;30334;-76
2021/07/16 06:31:20;;;;;;;8.13;7.23;;;;;;;;;;833865;71;29530;-80
2021/07/16 06:46:19;;;;;;;13.10;7.37;;;;;;;27.11;46.21;94031.51;828117;71;30810;-77
2021/07/16 07:01:26;;;;;;;8.40;7.70;;;;;;;27.53;45.70;94001.11;827466;71;33238;-76
2021/07/16 07:16:21;;;;;;;7.83;7.03;;;;;;;27.85;45.05;94007.94;827304;71;33217;-75
2021/07/16 07:31:20;;;;;;;10.70;7.67;;;;;;;28.91;43.34;93982.88;794867;74;33834;-76
2021/07/16 07:46:31;;;;;;;11.20;8.40;;;;;;;29.14;42.22;93980.66;827469;71;33231;-77
2021/07/16 08:16:46;;;;;;;9.50;8.60;;;;;;;29.22;42.43;93978.56;833735;71;32852;-76
2021/07/16 08:31:24;;;;;;;9.63;8.70;;;;;;;29.55;41.91;93981.28;827356;71;32740;-79
2021/07/16 08:46:22;;;;;;;9.80;8.90;;;;;;;29.90;41.43;93973.50;827299;71;32733;-76
2021/07/16 09:16:09;;;;;;;12.50;10.00;;;;;;;30.65;40.03;93938.27;828247;71;30830;-77
2021/07/16 09:31:27;;;;;;;11.43;10.47;;;;;;;31.13;39.10;93951.40;827457;71;31807;-79
2021/07/16 09:46:39;;;;;;;11.80;10.83;;;;;;;31.25;39.33;93937.08;833900;71;31782;-77
2021/07/16 10:01:29;;;;;;;12.10;10.87;;;;;;;31.49;38.91;93931.31;827869;71;31760;-77
2021/07/16 10:16:19;;;;;;;15.00;11.90;;;;;;;31.49;38.72;93921.81;834395;71;28298;-79
2021/07/16 10:17:23;;;;;;;14.87;11.90;;;;;;;31.44;38.79;93915.00;821995;72;26644;-77
2021/07/16 10:31:37;;;;;;;12.63;11.40;;;;;;;31.77;38.39;93912.59;829013;70;31769;-77
2021/07/16 10:46:43;;;;;;;13.77;12.20;;;;;;;31.80;38.63;93890.77;827582;71;31785;-78
2021/07/16 11:01:16;;;;;;;11.70;10.80;;;;;;;31.85;38.59;93879.33;827921;71;29255;-77
2021/07/16 11:16:41;;;;;;;78.63;62.90;;;;;;;31.93;38.62;93867.63;818084;71;29200;-76
2021/07/16 11:31:38;;;;;;;17.00;15.40;;;;;;;31.91;38.33;93852.39;834331;71;31773;-84
2021/07/16 12:01:29;;;;;;;13.10;12.10;;;;;;;32.17;36.82;93832.68;824978;71;31841;-80
2021/07/16 12:16:39;;;;;;;11.80;10.73;;;;;;;32.12;36.72;93822.41;834256;71;32194;-81
2021/07/16 12:31:24;;;;;;;13.97;11.00;;;;;;;32.05;36.03;93826.73;827581;71;31862;-79
2021/07/16 12:46:28;;;;;;;12.03;10.83;;;;;;;31.82;35.35;93796.10;827264;71;31830;-78
2021/07/16 13:01:25;;;;;;;10.77;9.77;;;;;;;31.63;34.49;93771.39;833573;71;32233;-80
2021/07/16 13:16:34;;;;;;;11.20;9.60;;;;;;;31.75;34.94;93759.71;828813;71;32270;-80
2021/07/16 13:31:31;;;;;;;14.67;9.57;;;;;;;31.78;35.34;93710.60;827803;71;31999;-76
2021/07/16 13:46:19;;;;;;;11.03;10.03;;;;;;;31.76;35.24;93708.94;834281;71;28801;-81
2021/07/16 14:01:17;;;;;;;9.93;9.00;;;;;;;31.61;35.18;93685.05;828604;71;28628;-76
2021/07/16 14:02:21;;;;;;;10.00;8.97;;;;;;;31.59;34.80;93698.30;808722;73;25924;-79
2021/07/16 14:16:35;;;;;;;9.77;8.60;;;;;;;31.37;35.80;93715.12;834173;71;31868;-79
2021/07/16 14:31:36;;;;;;;9.90;9.07;;;;;;;31.10;36.82;93696.09;834140;71;32234;-78
2021/07/16 14:46:12;;;;;;;16.43;8.90;;;;;;;30.84;37.03;93676.44;834048;71;29267;-77
2021/07/16 15:16:08;;;;;;;10.37;8.07;;;;;;;30.32;37.07;93669.79;828389;71;28811;-77
2021/07/16 15:31:16;;;;;;;8.80;7.70;;;;;;;29.88;36.67;93658.73;827560;71;31674;-75
2021/07/16 15:46:23;;;;;;;8.33;7.50;;;;;;;29.63;37.46;93674.33;834070;71;29305;-77
2021/07/16 16:01:37;;;;;;;10.00;8.60;;;;;;;29.31;39.54;93636.05;833999;71;29278;-77
2021/07/16 16:16:20;;;;;;;9.63;8.73;;;;;;;29.15;40.59;93688.96;828269;71;29348;-76
2021/07/16 16:31:17;;;;;;;16.33;8.70;;;;;;;28.82;41.33;93667.27;828441;71;28693;-80
2021/07/16 16:46:23;;;;;;;10.20;8.63;;;;;;;28.51;40.72;93679.20;827698;71;31780;-83
2021/07/16 17:01:14;;;;;;;9.70;8.80;;;;;;;28.25;41.27;93686.94;828930;71;28637;-77
2021/07/16 17:16:13;;;;;;;9.53;8.63;;;;;;;27.99;41.27;93669.80;828964;71;29472;-75
2021/07/16 17:31:10;;;;;;;10.63;8.80;;;;;;;27.81;39.80;93658.03;828263;71;28732;-78
2021/07/16 17:46:23;;;;;;;12.43;8.70;;;;;;;27.75;38.63;93669.30;834062;71;28722;-75
2021/07/16 18:01:23;;;;;;;9.20;7.60;;;;;;;27.75;37.68;93676.64;828345;71;29285;-77
2021/07/16 18:16:25;;;;;;;9.23;8.43;;;;;;;27.82;37.27;93707.50;827525;71;32155;-77
2021/07/16 18:31:18;;;;;;;12.50;7.80;;;;;;;27.96;37.34;93732.06;828541;71;28279;-75
2021/07/16 18:46:38;;;;;;;8.47;7.67;;;;;;;28.02;37.41;93776.84;827349;71;31766;-77
2021/07/16 19:01:12;;;;;;;10.13;9.10;;;;;;;28.00;39.21;93795.38;828358;71;29649;-75
2021/07/16 19:16:10;;;;;;;9.83;8.83;;;;;;;27.97;41.26;93846.28;829233;71;28432;-78
2021/07/16 19:31:24;;;;;;;10.13;9.13;;;;;;;27.15;46.95;93893.52;829083;71;28875;-78
2021/07/16 19:46:21;;;;;;;12.03;10.90;;;;;;;23.31;49.33;93459.47;834484;71;28894;-76
2021/07/16 20:01:19;;;;;;;10.77;9.77;;;;;;;26.68;49.74;93937.83;828640;71;27194;-78
2021/07/16 20:16:17;;;;;;;10.80;9.80;;;;;;;26.95;49.60;93882.83;829292;71;28295;-77
2021/07/16 20:31:19;;;;;;;10.60;9.50;;;;;;;;;;833927;71;30776;-77
2021/07/16 20:46:17;;;;;;;10.10;9.10;;;;;;;27.24;48.48;93895.13;834227;71;27269;-77
2021/07/16 21:16:17;;;;;;;9.10;8.40;;;;;;;;;;817414;71;30865;-77
2021/07/16 21:31:10;;;;;;;10.37;9.03;;;;;;;27.06;50.13;175553.91;790534;74;30068;-78
2021/07/16 21:46:13;;;;;;;10.57;9.43;;;;;;;;;;829051;71;33310;-76
2021/07/16 22:01:14;;;;;;;11.73;10.53;;;;;;;27.14;51.21;93959.33;827604;71;33197;-78
2021/07/16 22:16:39;;;;;;;10.27;9.37;;;;;;;;;;828212;71;28792;-78
2021/07/16 22:31:15;;;;;;;8.40;7.73;;;;;;;27.14;51.82;93967.41;827558;71;33137;-75
2021/07/16 22:46:09;;;;;;;6.53;6.03;;;;;;;27.10;52.35;93960.72;828762;71;28937;-77
2021/07/16 23:01:09;;;;;;;6.57;5.90;;;;;;;27.09;52.62;93946.47;828381;71;29689;-78
2021/07/16 23:16:14;;;;;;;6.90;6.30;;;;;;;;;;827731;71;33235;-79
2021/07/16 23:31:09;;;;;;;6.33;5.13;;;;;;;26.89;52.97;93941.59;828563;71;29885;-76
2021/07/16 23:46:08;;;;;;;5.07;4.57;;;;;;;26.90;52.93;93789.79;828696;71;29642;-76
